createdAt,value
2022-10-23T00:01:45.710Z,52.53
2022-10-23T00:05:15.725Z,50.22
2022-10-23T00:08:15.875Z,47.80
2022-10-23T00:10:44.580Z,47.92
2022-10-23T00:13:13.103Z,47.38
2022-10-23T00:15:41.059Z,47.60
2022-10-23T00:18:09.924Z,55.20
2022-10-23T00:20:37.880Z,52.08
2022-10-23T00:23:06.248Z,57.88
2022-10-23T00:25:34.504Z,52.95
2022-10-23T00:28:03.247Z,87.53
2022-10-23T00:30:31.226Z,58.88
2022-10-23T00:32:59.291Z,158.77
2022-10-23T00:35:27.740Z,97.15
2022-10-23T00:37:56.061Z,57.17
2022-10-23T00:40:24.414Z,56.70
2022-10-23T00:42:53.393Z,68.10
2022-10-23T00:45:27.030Z,59.25
2022-10-23T00:47:55.929Z,63.60
2022-10-23T00:50:24.891Z,67.60
2022-10-23T00:52:54.314Z,63.55
2022-10-23T00:55:24.186Z,61.45
2022-10-23T00:57:52.744Z,66.32
2022-10-23T01:00:29.749Z,64.97
2022-10-23T01:03:00.298Z,63.50
2022-10-23T01:05:35.578Z,64.78
2022-10-23T01:08:11.075Z,67.70
2022-10-23T01:10:47.716Z,75.68
2022-10-23T01:13:32.884Z,67.10
2022-10-23T01:16:07.834Z,65.43
2022-10-23T01:18:46.405Z,67.25
2022-10-23T01:21:19.797Z,68.78
2022-10-23T01:23:57.465Z,65.40
2022-10-23T01:27:03.169Z,64.80
2022-10-23T01:29:47.263Z,68.55
2022-10-23T01:32:35.653Z,67.20
2022-10-23T01:35:06.238Z,69.88
2022-10-23T01:37:45.615Z,76.82
2022-10-23T01:40:33.480Z,77.28
2022-10-23T01:43:13.739Z,81.93
2022-10-23T01:45:45.241Z,69.32
2022-10-23T01:48:22.033Z,74.50
2022-10-23T01:50:50.780Z,86.57
2022-10-23T01:53:20.530Z,76.57
2022-10-23T01:55:49.940Z,77.03
2022-10-23T01:58:25.656Z,81.05
2022-10-23T02:00:57.405Z,78.55
2022-10-23T02:03:28.211Z,81.10
2022-10-23T02:05:56.666Z,85.53
2022-10-23T02:08:25.957Z,76.20
2022-10-23T02:11:04.205Z,72.72
2022-10-23T02:13:50.613Z,73.70
2022-10-23T02:16:31.891Z,78.07
2022-10-23T02:19:22.085Z,68.57
2022-10-23T02:22:05.318Z,79.60
2022-10-23T02:24:50.175Z,74.43
2022-10-23T02:27:40.853Z,80.40
2022-10-23T02:30:12.345Z,83.05
2022-10-23T02:32:45.352Z,78.80
2022-10-23T02:35:14.179Z,73.60
2022-10-23T02:37:42.622Z,74.00
2022-10-23T02:40:12.231Z,82.00
2022-10-23T02:43:08.556Z,81.28
2022-10-23T02:45:55.925Z,83.60
2022-10-23T02:48:30.480Z,85.43
2022-10-23T02:51:12.169Z,83.65
2022-10-23T02:57:08.542Z,89.15
2022-10-23T02:59:44.815Z,89.35
2022-10-23T03:02:21.855Z,85.93
2022-10-23T03:04:51.497Z,82.50
2022-10-23T03:07:20.467Z,86.55
2022-10-23T03:09:49.550Z,90.63
2022-10-23T03:12:17.929Z,87.75
2022-10-23T03:14:45.920Z,86.70
2022-10-23T03:17:14.331Z,87.00
2022-10-23T03:19:42.798Z,82.70
2022-10-23T03:22:10.653Z,80.80
2022-10-23T03:24:38.735Z,86.15
2022-10-23T03:27:07.084Z,86.35
2022-10-23T03:29:35.054Z,116.00
2022-10-23T03:32:03.463Z,181.82
2022-10-23T03:34:32.051Z,100.70
2022-10-23T03:37:00.030Z,88.45
2022-10-23T03:39:28.686Z,89.47
2022-10-23T03:41:57.919Z,94.40
2022-10-23T03:44:26.964Z,83.88
2022-10-23T03:46:54.623Z,92.68
2022-10-23T03:49:22.864Z,82.97
2022-10-23T03:51:53.046Z,82.70
2022-10-23T03:54:24.208Z,77.03
2022-10-23T03:56:56.522Z,89.47
2022-10-23T03:59:25.589Z,87.57
2022-10-23T04:01:54.181Z,84.47
2022-10-23T04:04:25.630Z,85.00
2022-10-23T04:06:54.619Z,86.90
2022-10-23T04:09:23.309Z,86.47
2022-10-23T04:11:51.010Z,85.97
2022-10-23T04:14:19.439Z,75.68
2022-10-23T04:16:48.448Z,88.45
2022-10-23T04:19:17.862Z,83.63
2022-10-23T04:21:45.844Z,78.35
2022-10-23T04:24:14.301Z,86.90
2022-10-23T04:26:42.141Z,79.95
2022-10-23T04:29:12.598Z,77.60
2022-10-23T04:31:40.784Z,71.72
2022-10-23T04:34:09.195Z,76.55
2022-10-23T04:36:37.217Z,65.00
2022-10-23T04:39:11.495Z,73.55
2022-10-23T04:41:39.351Z,80.20
2022-10-23T04:44:08.200Z,70.82
2022-10-23T04:46:39.800Z,75.57
2022-10-23T04:49:08.640Z,79.60
2022-10-23T04:51:54.858Z,71.68
2022-10-23T04:54:39.979Z,73.15
2022-10-23T04:57:26.854Z,76.75
2022-10-23T05:00:10.552Z,78.50
2022-10-23T05:02:50.004Z,76.97
2022-10-23T05:05:18.807Z,82.22
2022-10-23T05:08:05.004Z,76.13
2022-10-23T05:10:51.962Z,79.85
2022-10-23T05:13:20.367Z,85.40
2022-10-23T05:15:49.745Z,80.75
2022-10-23T05:18:46.300Z,74.93
2022-10-23T05:21:22.752Z,85.88
2022-10-23T05:23:51.362Z,79.57
2022-10-23T05:26:20.095Z,74.80
2022-10-23T05:28:49.958Z,69.38
2022-10-23T05:31:20.049Z,74.20
2022-10-23T05:33:53.114Z,67.25
2022-10-23T05:36:23.952Z,74.28
2022-10-23T05:38:57.204Z,81.90
2022-10-23T05:41:25.781Z,80.68
2022-10-23T05:43:58.233Z,75.05
2022-10-23T05:46:44.940Z,74.00
2022-10-23T05:49:31.226Z,73.28
2022-10-23T05:52:28.865Z,79.25
2022-10-23T05:55:12.641Z,70.95
2022-10-23T05:58:03.399Z,72.55
2022-10-23T06:00:57.217Z,72.47
2022-10-23T06:03:44.422Z,77.10
2022-10-23T06:06:13.014Z,73.68
2022-10-23T06:08:47.669Z,73.65
2022-10-23T06:11:16.134Z,64.65
2022-10-23T06:13:51.752Z,65.78
2022-10-23T06:16:25.200Z,62.97
2022-10-23T06:18:54.121Z,68.90
2022-10-23T06:21:21.869Z,64.75
2022-10-23T06:23:52.590Z,64.82
2022-10-23T06:26:46.801Z,63.00
2022-10-23T06:29:23.479Z,69.60
2022-10-23T06:31:52.664Z,63.13
2022-10-23T06:34:20.960Z,64.43
2022-10-23T06:36:48.979Z,62.33
2022-10-23T06:39:40.790Z,56.72
2022-10-23T06:42:15.303Z,57.50
2022-10-23T06:44:57.549Z,53.17
2022-10-23T06:47:46.424Z,52.85
2022-10-23T06:50:33.372Z,57.50
2022-10-23T06:53:07.223Z,49.47
2022-10-23T06:55:41.936Z,51.30
2022-10-23T06:58:11.299Z,51.67
2022-10-23T07:00:54.962Z,54.95
2022-10-23T07:03:23.334Z,49.95
2022-10-23T07:05:51.715Z,48.05
2022-10-23T07:08:22.053Z,45.38
2022-10-23T07:10:53.067Z,55.45
2022-10-23T07:13:21.194Z,47.42
2022-10-23T07:15:59.784Z,50.38
2022-10-23T07:18:29.266Z,46.67
2022-10-23T07:21:18.541Z,50.60
2022-10-23T07:23:47.468Z,44.88
2022-10-23T07:26:17.300Z,51.03
2022-10-23T07:28:47.779Z,48.28
2022-10-23T07:31:24.353Z,44.08
2022-10-23T07:34:13.835Z,55.22
2022-10-23T07:36:43.493Z,48.38
2022-10-23T07:39:12.419Z,45.90
2022-10-23T07:41:49.053Z,43.78
2022-10-23T07:44:21.996Z,46.03
2022-10-23T07:46:53.805Z,52.08
2022-10-23T07:49:22.281Z,49.22
2022-10-23T07:51:52.269Z,57.47
2022-10-23T07:54:21.479Z,43.05
2022-10-23T07:57:13.109Z,44.05
2022-10-23T07:59:46.890Z,45.95
2022-10-23T08:02:21.137Z,47.30
2022-10-23T08:04:50.719Z,47.05
2022-10-23T08:07:26.825Z,42.70
2022-10-23T08:09:57.570Z,48.53
2022-10-23T08:12:27.097Z,45.67
2022-10-23T08:14:56.007Z,42.90
2022-10-23T08:17:28.401Z,46.20
2022-10-23T08:20:14.719Z,47.55
2022-10-23T08:22:45.409Z,40.92
2022-10-23T08:25:21.899Z,38.97
2022-10-23T08:27:53.854Z,43.83
2022-10-23T08:30:22.419Z,48.90
2022-10-23T08:32:50.984Z,51.15
2022-10-23T08:35:18.777Z,46.20
2022-10-23T08:37:47.021Z,54.53
2022-10-23T08:40:19.712Z,49.40
2022-10-23T08:43:11.419Z,43.83
2022-10-23T08:46:01.071Z,51.55
2022-10-23T08:48:52.231Z,47.83
2022-10-23T08:51:45.488Z,55.42
2022-10-23T08:54:41.858Z,54.45
2022-10-23T08:57:14.276Z,56.63
2022-10-23T08:59:48.035Z,55.70
2022-10-23T09:02:48.906Z,59.00
2022-10-23T09:05:22.405Z,64.07
2022-10-23T09:08:27.804Z,56.22
2022-10-23T09:11:22.643Z,59.72
2022-10-23T09:14:16.897Z,58.45
2022-10-23T09:17:03.637Z,57.55
2022-10-23T09:19:32.260Z,54.30
2022-10-23T09:22:00.720Z,62.53
2022-10-23T09:24:32.042Z,56.20
2022-10-23T09:27:01.283Z,51.65
2022-10-23T09:29:33.369Z,55.97
2022-10-23T09:32:04.179Z,60.57
2022-10-23T09:34:34.636Z,51.47
2022-10-23T09:37:28.179Z,63.40
2022-10-23T09:40:34.273Z,45.65
2022-10-23T09:43:11.709Z,50.60
2022-10-23T09:45:42.662Z,42.50
2022-10-23T09:48:19.579Z,44.47
2022-10-23T09:51:01.770Z,51.20
2022-10-23T09:53:32.470Z,50.67
2022-10-23T09:56:08.260Z,45.90
2022-10-23T09:58:39.664Z,46.88
2022-10-23T10:01:23.681Z,48.70
2022-10-23T10:03:54.783Z,42.90
2022-10-23T10:06:30.726Z,47.10
2022-10-23T10:11:30.776Z,47.28
2022-10-23T10:14:06.639Z,42.85
2022-10-23T10:17:02.069Z,51.00
2022-10-23T10:19:40.124Z,45.00
2022-10-23T10:22:34.309Z,48.40
2022-10-23T10:25:21.840Z,46.20
2022-10-23T10:28:15.085Z,45.40
2022-10-23T10:30:54.775Z,45.75
2022-10-23T10:33:29.426Z,46.97
2022-10-23T10:36:35.533Z,50.75
2022-10-23T10:39:05.202Z,50.15
2022-10-23T10:41:36.830Z,49.45
2022-10-23T10:44:37.143Z,41.47
2022-10-23T10:47:25.632Z,46.83
2022-10-23T10:50:03.053Z,47.13
2022-10-23T10:53:18.077Z,46.47
2022-10-23T10:55:50.682Z,47.05
2022-10-23T10:58:43.179Z,43.88
2022-10-23T11:01:26.900Z,41.63
2022-10-23T11:04:07.089Z,37.28
2022-10-23T11:06:36.835Z,36.63
2022-10-23T11:09:30.330Z,37.90
2022-10-23T11:12:00.028Z,36.63
2022-10-23T11:14:33.504Z,33.30
2022-10-23T11:17:12.076Z,32.40
2022-10-23T11:19:50.504Z,31.17
2022-10-23T11:22:37.323Z,42.13
2022-10-23T11:25:31.600Z,35.40
2022-10-23T11:28:18.742Z,35.30
2022-10-23T11:30:57.590Z,35.22
2022-10-23T11:33:49.164Z,35.33
2022-10-23T11:36:40.114Z,30.98
2022-10-23T11:39:38.271Z,38.35
2022-10-23T11:42:27.761Z,39.60
2022-10-23T11:44:55.883Z,39.72
2022-10-23T11:47:39.925Z,31.65
2022-10-23T11:50:08.523Z,30.83
2022-10-23T11:53:12.963Z,31.27
2022-10-23T11:55:57.661Z,35.10
2022-10-23T11:58:50.192Z,29.67
2022-10-23T12:01:37.560Z,32.03
2022-10-23T12:04:22.877Z,34.47
2022-10-23T12:07:00.581Z,34.42
2022-10-23T12:09:40.980Z,38.92
2022-10-23T12:12:08.721Z,34.10
2022-10-23T12:14:51.647Z,38.95
2022-10-23T12:17:22.631Z,35.95
2022-10-23T12:19:53.809Z,32.25
2022-10-23T12:22:28.685Z,35.40
2022-10-23T12:25:14.281Z,32.35
2022-10-23T12:27:45.061Z,33.35
2022-10-23T12:30:16.433Z,35.03
2022-10-23T12:32:57.680Z,40.55
2022-10-23T12:35:57.839Z,38.47
2022-10-23T12:38:31.320Z,35.47
2022-10-23T12:41:26.990Z,37.00
2022-10-23T12:43:58.246Z,38.80
2022-10-23T12:46:39.923Z,37.28
2022-10-23T12:49:26.185Z,42.13
2022-10-23T12:52:07.703Z,41.30
2022-10-23T12:54:43.348Z,42.45
2022-10-23T12:57:28.697Z,40.30
2022-10-23T13:00:02.692Z,43.03
2022-10-23T13:02:34.128Z,41.38
2022-10-23T13:05:07.005Z,35.92
2022-10-23T13:07:38.439Z,39.40
2022-10-23T13:10:08.205Z,38.50
2022-10-23T13:12:47.692Z,37.35
2022-10-23T13:15:19.419Z,36.53
2022-10-23T13:18:00.934Z,34.25
2022-10-23T13:20:34.614Z,41.80
2022-10-23T13:23:03.265Z,35.85
2022-10-23T13:25:33.202Z,34.72
2022-10-23T13:28:13.589Z,37.83
2022-10-23T13:30:46.317Z,30.38
2022-10-23T13:33:25.075Z,29.92
2022-10-23T13:35:58.261Z,32.58
2022-10-23T13:38:35.186Z,32.97
2022-10-23T13:41:05.864Z,37.75
2022-10-23T13:43:34.626Z,41.63
2022-10-23T13:46:03.408Z,37.85
2022-10-23T13:48:33.190Z,34.10
2022-10-23T13:51:15.738Z,33.83
2022-10-23T13:53:44.113Z,39.30
2022-10-23T13:56:14.100Z,32.33
2022-10-23T13:58:42.803Z,37.17
2022-10-23T14:01:30.348Z,35.20
2022-10-23T14:03:59.307Z,34.58
2022-10-23T14:06:27.411Z,40.83
2022-10-23T14:08:55.745Z,36.05
2022-10-23T14:11:24.107Z,33.58
2022-10-23T14:13:52.929Z,37.92
2022-10-23T14:16:22.365Z,34.53
2022-10-23T14:18:51.130Z,34.42
2022-10-23T14:21:21.640Z,30.65
2022-10-23T14:23:50.620Z,37.50
2022-10-23T14:26:21.534Z,36.85
2022-10-23T14:28:53.181Z,41.83
2022-10-23T14:31:21.841Z,35.72
2022-10-23T14:33:56.273Z,35.40
2022-10-23T14:36:28.292Z,36.10
2022-10-23T14:39:02.602Z,38.30
2022-10-23T14:41:30.843Z,35.95
2022-10-23T14:43:59.990Z,40.80
2022-10-23T14:46:28.600Z,42.08
2022-10-23T14:48:58.747Z,37.60
2022-10-23T14:51:31.061Z,39.17
2022-10-23T14:54:04.856Z,40.63
2022-10-23T14:56:35.384Z,41.75
2022-10-23T14:59:04.208Z,33.50
2022-10-23T15:01:34.041Z,42.35
2022-10-23T15:04:02.691Z,32.65
2022-10-23T15:06:30.945Z,39.78
2022-10-23T15:08:59.590Z,35.42
2022-10-23T15:11:28.090Z,36.03
2022-10-23T15:13:56.844Z,35.03
2022-10-23T15:16:25.570Z,31.92
2022-10-23T15:18:53.824Z,48.78
2022-10-23T15:21:22.261Z,44.58
2022-10-23T15:23:50.821Z,36.60
2022-10-23T15:26:22.915Z,33.83
2022-10-23T15:29:00.818Z,34.55
2022-10-23T15:31:42.930Z,35.67
2022-10-23T15:34:17.979Z,43.72
2022-10-23T15:36:47.309Z,107.68
2022-10-23T15:39:18.812Z,78.90
2022-10-23T15:41:47.364Z,64.93
2022-10-23T15:44:17.747Z,46.00
2022-10-23T15:46:46.385Z,39.28
2022-10-23T15:49:15.026Z,35.22
2022-10-23T15:51:43.971Z,39.85
2022-10-23T15:54:19.480Z,47.30
2022-10-23T15:56:49.316Z,46.72
2022-10-23T15:59:19.264Z,45.80
2022-10-23T16:01:47.603Z,44.03
2022-10-23T16:04:16.423Z,52.55
2022-10-23T16:06:45.026Z,90.88
2022-10-23T16:09:13.687Z,80.25
2022-10-23T16:11:42.958Z,142.02
2022-10-23T16:14:14.503Z,150.63
2022-10-23T16:16:42.701Z,91.15
2022-10-23T16:19:11.741Z,55.85
2022-10-23T16:21:39.956Z,45.67
2022-10-23T16:24:08.945Z,44.97
2022-10-23T16:26:38.065Z,41.53
2022-10-23T16:29:07.349Z,41.97
2022-10-23T16:31:35.950Z,41.78
2022-10-23T16:34:05.604Z,48.38
2022-10-23T16:36:35.129Z,41.17
2022-10-23T16:39:21.771Z,52.05
2022-10-23T16:42:08.208Z,45.25
2022-10-23T16:45:15.336Z,44.03
2022-10-23T16:47:43.588Z,46.97
2022-10-23T16:50:11.806Z,44.47
2022-10-23T16:52:39.632Z,43.83
2022-10-23T16:55:08.913Z,48.33
2022-10-23T16:57:36.962Z,43.60
2022-10-23T17:00:07.231Z,49.58
2022-10-23T17:02:38.316Z,48.78
2022-10-23T17:05:06.820Z,55.95
2022-10-23T17:07:34.722Z,42.88
2022-10-23T17:10:03.368Z,51.08
2022-10-23T17:12:31.815Z,54.85
2022-10-23T17:15:00.135Z,56.60
2022-10-23T17:17:28.205Z,50.25
2022-10-23T17:19:56.507Z,42.60
2022-10-23T17:22:24.612Z,48.28
2022-10-23T17:24:54.176Z,51.63
2022-10-23T17:27:22.360Z,39.95
2022-10-23T17:29:50.834Z,39.30
2022-10-23T17:32:18.808Z,37.33
2022-10-23T17:34:47.156Z,34.30
2022-10-23T17:37:15.244Z,37.03
2022-10-23T17:39:43.607Z,34.17
2022-10-23T17:42:11.636Z,36.88
2022-10-23T17:44:40.269Z,37.72
2022-10-23T17:47:08.425Z,34.30
2022-10-23T17:49:37.605Z,38.13
2022-10-23T17:52:06.687Z,37.67
2022-10-23T17:54:34.728Z,34.72
2022-10-23T17:57:03.142Z,34.47
2022-10-23T17:59:31.659Z,33.47
2022-10-23T18:02:01.226Z,30.67
2022-10-23T18:04:29.751Z,35.50
2022-10-23T18:06:57.768Z,38.15
2022-10-23T18:09:26.166Z,43.47
2022-10-23T18:11:54.094Z,34.20
2022-10-23T18:14:26.057Z,34.08
2022-10-23T18:16:57.069Z,41.30
2022-10-23T18:19:25.246Z,38.58
2022-10-23T18:21:53.646Z,37.25
2022-10-23T18:24:22.028Z,33.90
2022-10-23T18:26:50.709Z,30.80
2022-10-23T18:29:19.080Z,39.20
2022-10-23T18:31:48.483Z,38.10
2022-10-23T18:34:24.772Z,46.25
2022-10-23T18:36:54.557Z,41.05
2022-10-23T18:39:25.376Z,302.80
2022-10-23T18:41:59.490Z,56.22
2022-10-23T18:44:30.373Z,65.70
2022-10-23T18:47:00.195Z,40.17
2022-10-23T18:49:28.838Z,48.85
2022-10-23T18:51:58.552Z,41.97
2022-10-23T18:54:27.162Z,39.78
2022-10-23T18:56:55.090Z,39.92
2022-10-23T18:59:22.774Z,44.78
2022-10-23T19:01:51.126Z,51.08
2022-10-23T19:04:19.430Z,50.45
2022-10-23T19:06:48.493Z,49.47
2022-10-23T19:09:16.749Z,52.40
2022-10-23T19:11:45.464Z,50.88
2022-10-23T19:14:13.652Z,47.80
2022-10-23T19:17:09.221Z,49.47
2022-10-23T19:20:07.181Z,107.80
2022-10-23T19:22:35.869Z,51.53
2022-10-23T19:25:10.476Z,49.70
2022-10-23T19:27:39.351Z,51.22
2022-10-23T19:30:13.700Z,46.90
2022-10-23T19:32:42.464Z,46.85
2022-10-23T19:35:11.945Z,47.00
2022-10-23T19:37:39.541Z,44.42
2022-10-23T19:40:09.237Z,50.80
2022-10-23T19:42:39.129Z,57.17
2022-10-23T19:45:09.478Z,56.40
2022-10-23T19:47:36.909Z,47.38
2022-10-23T19:50:06.551Z,53.97
2022-10-23T19:52:34.799Z,45.63
2022-10-23T19:55:03.655Z,56.90
2022-10-23T19:57:34.133Z,54.88
2022-10-23T20:00:02.465Z,53.00
2022-10-23T20:02:38.249Z,47.30
2022-10-23T20:05:07.484Z,50.63
2022-10-23T20:07:36.187Z,53.20
2022-10-23T20:10:08.581Z,62.03
2022-10-23T20:12:36.208Z,58.58
2022-10-23T20:15:04.216Z,49.38
2022-10-23T20:17:31.674Z,164.43
2022-10-23T20:19:59.332Z,75.63
2022-10-23T20:22:26.807Z,48.60
2022-10-23T20:24:54.433Z,54.33
2022-10-23T20:27:22.631Z,65.78
2022-10-23T20:29:50.485Z,84.70
2022-10-23T20:32:17.949Z,219.07
2022-10-23T20:34:45.595Z,212.13
2022-10-23T20:37:13.260Z,83.85
2022-10-23T20:39:41.007Z,51.88
2022-10-23T20:42:08.520Z,56.40
2022-10-23T20:44:36.592Z,84.20
2022-10-23T20:47:04.548Z,90.72
2022-10-23T20:49:31.952Z,98.40
2022-10-23T20:51:59.280Z,108.32
2022-10-23T20:54:28.951Z,105.38
2022-10-23T20:56:57.230Z,93.85
2022-10-23T20:59:25.581Z,101.88
2022-10-23T21:01:53.802Z,89.40
2022-10-23T21:04:24.520Z,78.18
2022-10-23T21:07:10.400Z,85.20
2022-10-23T21:09:39.706Z,73.05
2022-10-23T21:12:07.520Z,66.15
2022-10-23T21:14:36.425Z,62.42
2022-10-23T21:17:04.070Z,61.03
2022-10-23T21:19:31.862Z,56.42
2022-10-23T21:22:00.139Z,56.00
2022-10-23T21:24:27.922Z,60.97
2022-10-23T21:26:55.396Z,52.88
2022-10-23T21:29:22.901Z,77.75
2022-10-23T21:31:59.202Z,91.28
2022-10-23T21:34:27.136Z,108.03
2022-10-23T21:39:44.090Z,95.78
2022-10-23T21:42:13.026Z,88.95
2022-10-23T21:44:40.716Z,108.30
2022-10-23T21:47:08.058Z,152.07
2022-10-23T21:49:35.843Z,122.68
2022-10-23T21:52:04.778Z,95.43
2022-10-23T21:54:32.650Z,89.70
2022-10-23T21:57:00.057Z,174.35
2022-10-23T21:59:30.313Z,159.43
2022-10-23T22:01:59.799Z,138.38
2022-10-23T22:04:27.654Z,120.85
2022-10-23T22:06:55.190Z,115.68
2022-10-23T22:09:23.431Z,115.85
2022-10-23T22:11:52.017Z,104.00
2022-10-23T22:14:21.854Z,105.57
2022-10-23T22:16:50.085Z,120.18
2022-10-23T22:19:19.429Z,114.05
2022-10-23T22:21:48.092Z,114.03
2022-10-23T22:24:17.661Z,96.20
2022-10-23T22:26:48.447Z,116.90
2022-10-23T22:29:19.440Z,99.32
2022-10-23T22:31:49.688Z,84.95
2022-10-23T22:34:47.955Z,75.70
2022-10-23T22:37:13.486Z,97.93
2022-10-23T22:39:41.795Z,313.23
2022-10-23T22:42:09.236Z,256.95
2022-10-23T22:44:37.071Z,322.73
2022-10-23T22:47:04.565Z,655.20
2022-10-23T22:49:32.185Z,796.78
2022-10-23T22:51:59.750Z,200.00
2022-10-23T22:54:27.429Z,287.35
2022-10-23T22:56:54.850Z,240.68
2022-10-23T22:59:22.697Z,190.80
2022-10-23T23:01:50.804Z,173.63
2022-10-23T23:07:11.515Z,142.48
2022-10-23T23:12:13.013Z,78.35
2022-10-23T23:14:41.770Z,82.72
2022-10-23T23:17:09.899Z,86.57
2022-10-23T23:19:38.143Z,82.63
2022-10-23T23:22:05.934Z,80.05
2022-10-23T23:24:34.129Z,83.78
2022-10-23T23:27:01.690Z,79.45
2022-10-23T23:29:29.865Z,80.20
2022-10-23T23:31:57.352Z,73.65
2022-10-23T23:34:24.967Z,75.65
2022-10-23T23:36:52.622Z,94.00
2022-10-23T23:39:20.326Z,121.35
2022-10-23T23:41:47.628Z,113.65
2022-10-23T23:44:15.429Z,92.78
2022-10-23T23:46:42.763Z,125.13
2022-10-23T23:49:10.359Z,120.85
2022-10-23T23:51:37.782Z,124.25
2022-10-23T23:54:05.447Z,114.78
2022-10-23T23:56:32.694Z,117.43
2022-10-23T23:59:00.407Z,106.68
